createdAt,value
2022-12-20T00:00:15.400Z,7.40
2022-12-20T00:02:43.731Z,6.60
2022-12-20T00:05:12.073Z,6.63
2022-12-20T00:07:40.875Z,6.40
2022-12-20T00:10:10.212Z,6.27
2022-12-20T00:12:38.950Z,6.20
2022-12-20T00:15:10.713Z,5.90
2022-12-20T00:17:40.363Z,4.40
2022-12-20T00:20:12.089Z,4.40
2022-12-20T00:22:40.361Z,4.23
2022-12-20T00:25:09.513Z,3.93
2022-12-20T00:27:37.642Z,4.37
2022-12-20T00:30:08.155Z,5.07
2022-12-20T00:32:36.405Z,4.40
2022-12-20T00:35:07.195Z,4.10
2022-12-20T00:37:35.619Z,4.47
2022-12-20T00:40:05.966Z,4.30
2022-12-20T00:42:34.809Z,4.23
2022-12-20T00:45:03.377Z,4.93
2022-12-20T00:47:32.066Z,4.33
2022-12-20T00:50:00.295Z,4.40
2022-12-20T00:52:29.994Z,3.60
2022-12-20T00:54:58.333Z,3.63
2022-12-20T00:57:26.597Z,4.33
2022-12-20T00:59:54.808Z,3.93
2022-12-20T01:02:25.176Z,3.97
2022-12-20T01:04:55.502Z,3.50
2022-12-20T01:07:25.196Z,3.87
2022-12-20T01:09:56.374Z,3.73
2022-12-20T01:12:25.165Z,3.80
2022-12-20T01:14:53.977Z,3.73
2022-12-20T01:17:22.651Z,4.80
2022-12-20T01:19:51.221Z,4.07
2022-12-20T01:22:20.194Z,3.97
2022-12-20T01:24:48.430Z,3.77
2022-12-20T01:27:18.880Z,3.90
2022-12-20T01:29:47.144Z,4.53
2022-12-20T01:32:16.252Z,4.50
2022-12-20T01:34:44.512Z,5.47
2022-12-20T01:37:14.549Z,2.57
2022-12-20T01:39:42.877Z,4.50
2022-12-20T01:42:15.941Z,4.83
2022-12-20T01:45:14.251Z,3.03
2022-12-20T01:47:42.665Z,2.47
2022-12-20T01:50:11.292Z,3.30
2022-12-20T01:52:48.092Z,2.30
2022-12-20T01:55:21.197Z,2.60
2022-12-20T01:57:55.261Z,2.97
2022-12-20T02:00:25.754Z,1.97
2022-12-20T02:02:55.803Z,2.00
2022-12-20T02:05:25.234Z,1.27
2022-12-20T02:07:58.259Z,1.60
2022-12-20T02:10:39.071Z,1.20
2022-12-20T02:13:21.533Z,0.97
2022-12-20T02:15:56.907Z,1.20
2022-12-20T02:18:32.647Z,1.30
2022-12-20T02:21:25.469Z,0.90
2022-12-20T02:24:41.178Z,1.00
2022-12-20T02:27:33.255Z,1.00
2022-12-20T02:30:18.895Z,0.80
2022-12-20T02:33:00.940Z,1.00
2022-12-20T02:35:32.662Z,0.90
2022-12-20T02:38:05.798Z,1.13
2022-12-20T02:40:41.865Z,0.90
2022-12-20T02:43:27.050Z,0.93
2022-12-20T02:46:00.175Z,1.00
2022-12-20T02:48:37.774Z,0.93
2022-12-20T02:51:11.678Z,0.90
2022-12-20T02:53:43.018Z,1.20
2022-12-20T02:56:21.391Z,1.27
2022-12-20T02:58:58.353Z,1.10
2022-12-20T03:01:33.550Z,0.80
2022-12-20T03:04:03.280Z,1.00
2022-12-20T03:06:31.968Z,1.17
2022-12-20T03:09:00.727Z,1.00
2022-12-20T03:11:31.690Z,1.17
2022-12-20T03:14:00.815Z,1.00
2022-12-20T03:16:30.896Z,1.00
2022-12-20T03:18:59.437Z,1.20
2022-12-20T03:21:28.161Z,1.50
2022-12-20T03:23:56.457Z,1.50
2022-12-20T03:26:24.758Z,1.20
2022-12-20T03:28:58.541Z,1.23
2022-12-20T03:31:30.548Z,1.63
2022-12-20T03:34:01.081Z,1.33
2022-12-20T03:36:29.738Z,1.70
2022-12-20T03:39:01.930Z,2.00
2022-12-20T03:41:33.526Z,1.97
2022-12-20T03:44:02.469Z,2.13
2022-12-20T03:46:32.472Z,2.03
2022-12-20T03:49:01.076Z,1.60
2022-12-20T03:51:30.343Z,1.83
2022-12-20T03:53:59.043Z,1.70
2022-12-20T03:56:41.689Z,1.60
2022-12-20T03:59:10.424Z,1.60
2022-12-20T04:01:41.448Z,1.53
2022-12-20T04:04:11.548Z,1.90
2022-12-20T04:06:40.379Z,1.30
2022-12-20T04:09:08.660Z,1.43
2022-12-20T04:11:43.436Z,3.90
2022-12-20T04:14:15.370Z,2.37
2022-12-20T04:16:46.973Z,1.87
2022-12-20T04:19:15.645Z,1.90
2022-12-20T04:21:47.651Z,1.37
2022-12-20T04:24:20.957Z,1.63
2022-12-20T04:27:07.822Z,1.47
2022-12-20T04:29:36.901Z,1.90
2022-12-20T04:32:09.721Z,2.77
2022-12-20T04:34:38.533Z,3.30
2022-12-20T04:37:06.994Z,4.20
2022-12-20T04:39:45.955Z,3.70
2022-12-20T04:42:20.923Z,3.30
2022-12-20T04:44:50.670Z,3.40
2022-12-20T04:47:26.105Z,2.80
2022-12-20T04:49:56.386Z,2.30
2022-12-20T04:52:47.594Z,2.63
2022-12-20T04:55:17.200Z,2.07
2022-12-20T04:57:46.147Z,1.90
2022-12-20T05:00:17.232Z,1.50
2022-12-20T05:02:51.636Z,1.30
2022-12-20T05:05:23.058Z,2.57
2022-12-20T05:07:55.277Z,2.13
2022-12-20T05:10:24.485Z,1.70
2022-12-20T05:12:54.582Z,2.20
2022-12-20T05:15:33.463Z,1.90
2022-12-20T05:18:05.598Z,2.83
2022-12-20T05:20:47.136Z,2.90
2022-12-20T05:23:33.529Z,3.03
2022-12-20T05:26:22.046Z,3.50
2022-12-20T05:28:53.713Z,3.43
2022-12-20T05:31:22.725Z,3.07
2022-12-20T05:33:53.013Z,4.07
2022-12-20T05:36:22.454Z,3.80
2022-12-20T05:38:51.825Z,10.40
2022-12-20T05:41:21.358Z,8.43
2022-12-20T05:43:53.043Z,9.30
2022-12-20T05:46:21.495Z,6.53
2022-12-20T05:49:02.885Z,4.43
2022-12-20T05:51:33.178Z,6.73
2022-12-20T05:54:08.736Z,7.50
2022-12-20T05:56:48.936Z,9.47
2022-12-20T05:59:20.470Z,11.27
2022-12-20T06:01:49.719Z,10.70
2022-12-20T06:04:19.965Z,9.07
2022-12-20T06:06:49.169Z,12.57
2022-12-20T06:09:21.145Z,12.40
2022-12-20T06:12:02.560Z,9.37
2022-12-20T06:14:33.743Z,13.63
2022-12-20T06:17:03.738Z,9.53
2022-12-20T06:19:35.196Z,10.47
2022-12-20T06:22:04.728Z,10.47
2022-12-20T06:24:55.619Z,10.53
2022-12-20T06:27:28.491Z,9.30
2022-12-20T06:30:12.339Z,11.43
2022-12-20T06:33:16.279Z,10.67
2022-12-20T06:35:46.524Z,7.60
2022-12-20T06:38:15.531Z,7.07
2022-12-20T06:40:44.216Z,6.83
2022-12-20T06:43:12.713Z,8.53
2022-12-20T06:45:42.154Z,11.70
2022-12-20T06:48:12.479Z,9.93
2022-12-20T06:50:41.678Z,12.07
2022-12-20T06:53:12.238Z,21.30
2022-12-20T06:55:41.440Z,29.67
2022-12-20T06:58:09.972Z,32.63
2022-12-20T07:00:39.497Z,42.00
2022-12-20T07:03:08.659Z,36.57
2022-12-20T07:05:37.115Z,19.73
2022-12-20T07:08:07.033Z,12.47
2022-12-20T07:10:38.775Z,10.60
2022-12-20T07:13:07.047Z,8.90
2022-12-20T07:15:35.410Z,7.10
2022-12-20T07:18:03.758Z,6.70
2022-12-20T07:20:32.832Z,7.33
2022-12-20T07:23:01.377Z,6.40
2022-12-20T07:25:30.852Z,5.53
2022-12-20T07:28:00.883Z,5.37
2022-12-20T07:30:29.077Z,9.07
2022-12-20T07:32:57.349Z,6.53
2022-12-20T07:35:26.697Z,5.37
2022-12-20T07:37:55.376Z,4.93
2022-12-20T07:40:24.225Z,5.10
2022-12-20T07:42:53.667Z,5.27
2022-12-20T07:45:23.306Z,7.63
2022-12-20T07:47:52.220Z,7.97
2022-12-20T07:50:20.505Z,6.20
2022-12-20T07:52:52.017Z,7.97
2022-12-20T07:55:20.621Z,6.30
2022-12-20T07:57:54.445Z,8.07
2022-12-20T08:00:24.984Z,7.73
2022-12-20T08:03:00.576Z,7.20
2022-12-20T08:05:30.671Z,7.17
2022-12-20T08:08:04.049Z,5.90
2022-12-20T08:10:33.691Z,6.97
2022-12-20T08:13:03.007Z,5.20
2022-12-20T08:15:32.957Z,5.80
2022-12-20T08:18:01.458Z,5.37
2022-12-20T08:20:30.232Z,5.70
2022-12-20T08:22:58.514Z,5.90
2022-12-20T08:25:27.003Z,7.20
2022-12-20T08:27:55.227Z,7.70
2022-12-20T08:30:23.639Z,7.17
2022-12-20T08:32:53.322Z,7.43
2022-12-20T08:35:22.108Z,6.80
2022-12-20T08:37:55.965Z,6.20
2022-12-20T08:40:24.382Z,6.87
2022-12-20T08:42:53.302Z,7.73
2022-12-20T08:45:21.979Z,7.23
2022-12-20T08:47:50.312Z,8.47
2022-12-20T08:50:20.588Z,11.27
2022-12-20T08:52:48.909Z,10.90
2022-12-20T08:55:24.571Z,12.27
2022-12-20T08:57:55.898Z,14.43
2022-12-20T09:00:26.160Z,15.00
2022-12-20T09:02:55.985Z,15.07
2022-12-20T09:05:25.905Z,14.30
2022-12-20T09:07:55.372Z,13.63
2022-12-20T09:10:24.421Z,12.87
2022-12-20T09:12:52.727Z,12.27
2022-12-20T09:15:21.221Z,11.40
2022-12-20T09:17:49.477Z,13.97
2022-12-20T09:20:17.860Z,14.47
2022-12-20T09:22:48.103Z,12.27
2022-12-20T09:25:18.988Z,14.27
2022-12-20T09:27:47.689Z,16.70
2022-12-20T09:30:16.396Z,18.43
2022-12-20T09:32:45.912Z,22.43
2022-12-20T09:35:19.333Z,30.20
2022-12-20T09:37:52.393Z,32.67
2022-12-20T09:40:32.599Z,28.30
2022-12-20T09:43:01.275Z,41.23
2022-12-20T09:45:37.144Z,48.80
2022-12-20T09:48:07.864Z,45.50
2022-12-20T09:50:54.866Z,34.97
2022-12-20T09:53:42.803Z,19.00
2022-12-20T09:56:17.830Z,10.97
2022-12-20T09:59:03.488Z,11.90
2022-12-20T10:01:39.531Z,10.90
2022-12-20T10:04:22.154Z,15.33
2022-12-20T10:07:11.335Z,17.53
2022-12-20T10:10:19.186Z,22.03
2022-12-20T10:13:02.368Z,21.17
2022-12-20T10:15:42.054Z,10.00
2022-12-20T10:18:34.173Z,14.10
2022-12-20T10:21:12.545Z,16.10
2022-12-20T10:23:47.372Z,8.10
2022-12-20T10:26:18.327Z,11.97
2022-12-20T10:28:52.199Z,14.80
2022-12-20T10:31:22.934Z,11.90
2022-12-20T10:33:51.290Z,12.10
2022-12-20T10:36:24.269Z,14.60
2022-12-20T10:38:55.530Z,16.03
2022-12-20T10:41:28.598Z,15.40
2022-12-20T10:44:03.722Z,22.00
2022-12-20T10:46:43.710Z,6.40
2022-12-20T10:49:31.572Z,18.37
2022-12-20T10:52:03.790Z,7.27
2022-12-20T10:54:37.147Z,9.17
2022-12-20T10:57:23.952Z,10.00
2022-12-20T10:59:56.355Z,11.60
2022-12-20T11:02:39.330Z,10.07
2022-12-20T11:05:25.532Z,14.90
2022-12-20T11:10:47.358Z,5.93
2022-12-20T11:13:29.065Z,6.20
2022-12-20T11:16:01.761Z,4.97
2022-12-20T11:18:51.203Z,5.77
2022-12-20T11:21:34.061Z,5.67
2022-12-20T11:24:15.469Z,6.13
2022-12-20T11:27:15.650Z,6.07
2022-12-20T11:30:18.666Z,4.80
2022-12-20T11:33:15.763Z,4.67
2022-12-20T11:35:56.650Z,5.07
2022-12-20T11:38:42.816Z,5.37
2022-12-20T11:41:21.374Z,7.10
2022-12-20T11:44:27.235Z,7.83
2022-12-20T11:47:25.759Z,10.77
2022-12-20T11:50:35.355Z,6.40
2022-12-20T11:53:11.843Z,7.47
2022-12-20T11:55:46.981Z,9.33
2022-12-20T11:58:23.688Z,10.67
2022-12-20T12:01:02.011Z,12.30
2022-12-20T12:03:37.410Z,12.10
2022-12-20T12:06:13.143Z,12.90
2022-12-20T12:08:50.056Z,11.40
2022-12-20T12:14:27.292Z,11.90
2022-12-20T12:17:06.906Z,12.83
2022-12-20T12:19:44.469Z,14.13
2022-12-20T12:22:21.279Z,13.37
2022-12-20T12:24:57.283Z,10.50
2022-12-20T12:27:29.260Z,8.60
2022-12-20T12:30:00.200Z,8.90
2022-12-20T12:32:44.159Z,11.97
2022-12-20T12:36:03.006Z,12.10
2022-12-20T12:39:02.913Z,9.80
2022-12-20T12:42:20.129Z,8.93
2022-12-20T12:44:55.783Z,8.63
2022-12-20T12:47:39.696Z,11.57
2022-12-20T12:50:24.056Z,9.50
2022-12-20T12:52:57.384Z,9.40
2022-12-20T12:56:07.417Z,9.70
2022-12-20T12:58:48.810Z,9.30
2022-12-20T13:01:56.375Z,8.87
2022-12-20T13:04:31.313Z,8.53
2022-12-20T13:07:05.038Z,9.07
2022-12-20T13:09:44.127Z,9.30
2022-12-20T13:12:57.132Z,10.00
2022-12-20T13:16:48.747Z,10.40
2022-12-20T13:19:19.192Z,8.77
2022-12-20T13:21:48.860Z,10.30
2022-12-20T13:25:04.655Z,12.37
2022-12-20T13:27:39.097Z,14.30
2022-12-20T13:30:28.533Z,42.37
2022-12-20T13:33:17.540Z,29.63
2022-12-20T13:36:03.466Z,29.40
2022-12-20T13:38:56.224Z,27.73
2022-12-20T13:41:39.797Z,20.20
2022-12-20T13:44:42.873Z,24.30
2022-12-20T13:47:30.864Z,19.03
2022-12-20T13:50:04.256Z,24.57
2022-12-20T13:52:35.255Z,23.60
2022-12-20T13:55:17.512Z,18.57
2022-12-20T13:57:47.708Z,18.90
2022-12-20T14:00:20.132Z,21.80
2022-12-20T14:02:48.928Z,20.07
2022-12-20T14:05:23.406Z,21.60
2022-12-20T14:08:00.680Z,26.00
2022-12-20T14:10:32.252Z,45.70
2022-12-20T14:13:02.319Z,29.70
2022-12-20T14:15:33.389Z,28.37
2022-12-20T14:18:17.246Z,22.23
2022-12-20T14:20:49.713Z,20.10
2022-12-20T14:23:21.672Z,19.03
2022-12-20T14:25:54.271Z,20.03
2022-12-20T14:28:32.756Z,18.57
2022-12-20T14:31:26.995Z,20.36
2022-12-20T14:34:06.251Z,20.33
2022-12-20T14:36:36.085Z,22.60
2022-12-20T14:39:27.218Z,28.03
2022-12-20T14:42:01.199Z,28.63
2022-12-20T14:44:33.208Z,27.17
2022-12-20T14:47:13.061Z,27.57
2022-12-20T14:49:42.445Z,26.37
2022-12-20T14:52:18.106Z,25.90
2022-12-20T14:55:09.428Z,25.43
2022-12-20T14:57:46.569Z,31.20
2022-12-20T15:00:24.493Z,34.60
2022-12-20T15:03:01.630Z,29.80
2022-12-20T15:05:51.390Z,25.67
2022-12-20T15:08:27.535Z,25.67
2022-12-20T15:11:01.177Z,25.97
2022-12-20T15:13:34.255Z,27.90
2022-12-20T15:16:07.713Z,26.60
2022-12-20T15:18:36.228Z,32.40
2022-12-20T15:21:15.126Z,55.23
2022-12-20T15:23:49.004Z,59.10
2022-12-20T15:26:20.634Z,42.30
2022-12-20T15:28:49.432Z,27.73
2022-12-20T15:31:26.010Z,21.57
2022-12-20T15:33:58.484Z,39.70
2022-12-20T15:36:30.259Z,36.57
2022-12-20T15:39:15.820Z,34.33
2022-12-20T15:41:48.243Z,41.27
2022-12-20T15:44:21.692Z,39.33
2022-12-20T15:46:52.824Z,35.47
2022-12-20T15:49:24.674Z,33.43
2022-12-20T15:51:55.201Z,24.73
2022-12-20T15:54:27.552Z,28.00
2022-12-20T15:56:57.959Z,33.73
2022-12-20T16:02:23.263Z,30.93
2022-12-20T16:04:52.903Z,23.43
2022-12-20T16:07:21.765Z,24.77
2022-12-20T16:09:51.150Z,17.53
2022-12-20T16:12:25.607Z,17.87
2022-12-20T16:14:55.559Z,17.63
2022-12-20T16:17:25.720Z,19.43
2022-12-20T16:19:55.376Z,14.47
2022-12-20T16:22:26.726Z,13.57
2022-12-20T16:24:55.757Z,14.20
2022-12-20T16:27:24.267Z,16.77
2022-12-20T16:29:52.757Z,15.27
2022-12-20T16:32:23.062Z,16.17
2022-12-20T16:34:53.813Z,27.93
2022-12-20T16:37:22.713Z,26.13
2022-12-20T16:39:51.228Z,38.07
2022-12-20T16:42:22.693Z,28.50
2022-12-20T16:44:54.288Z,18.77
2022-12-20T16:47:23.112Z,20.97
2022-12-20T16:49:53.949Z,21.80
2022-12-20T16:52:24.956Z,23.03
2022-12-20T16:54:53.802Z,22.40
2022-12-20T16:57:22.235Z,20.87
2022-12-20T16:59:50.959Z,25.33
2022-12-20T17:02:28.744Z,27.47
2022-12-20T17:04:59.225Z,25.33
2022-12-20T17:07:27.631Z,28.47
2022-12-20T17:09:55.954Z,31.43
2022-12-20T17:12:24.532Z,20.77
2022-12-20T17:14:53.263Z,16.07
2022-12-20T17:17:21.519Z,15.73
2022-12-20T17:19:50.931Z,16.60
2022-12-20T17:22:23.764Z,15.17
2022-12-20T17:24:52.548Z,15.20
2022-12-20T17:27:20.881Z,13.73
2022-12-20T17:29:51.037Z,14.90
2022-12-20T17:32:23.967Z,18.37
2022-12-20T17:34:52.951Z,19.33
2022-12-20T17:37:24.692Z,34.73
2022-12-20T17:39:53.159Z,39.47
2022-12-20T17:42:28.761Z,35.30
2022-12-20T17:44:59.484Z,33.73
2022-12-20T17:47:27.803Z,36.70
2022-12-20T17:49:56.105Z,33.70
2022-12-20T17:52:26.606Z,25.47
2022-12-20T17:54:55.905Z,25.90
2022-12-20T17:57:27.094Z,22.77
2022-12-20T17:59:55.531Z,17.63
2022-12-20T18:02:27.977Z,10.77
2022-12-20T18:04:56.938Z,12.27
2022-12-20T18:07:26.847Z,10.47
2022-12-20T18:09:55.139Z,15.00
2022-12-20T18:12:23.621Z,14.13
2022-12-20T18:14:52.023Z,11.03
2022-12-20T18:17:21.052Z,10.40
2022-12-20T18:19:49.619Z,12.20
2022-12-20T18:22:18.354Z,13.47
2022-12-20T18:24:48.465Z,12.37
2022-12-20T18:27:17.996Z,9.23
2022-12-20T18:29:46.743Z,7.97
2022-12-20T18:32:15.071Z,14.30
2022-12-20T18:34:44.099Z,17.87
2022-12-20T18:37:12.480Z,22.37
2022-12-20T18:39:41.619Z,30.10
2022-12-20T18:42:11.358Z,36.27
2022-12-20T18:44:40.349Z,21.13
2022-12-20T18:47:09.106Z,18.93
2022-12-20T18:49:37.920Z,12.97
2022-12-20T18:52:07.138Z,20.10
2022-12-20T18:54:36.777Z,20.40
2022-12-20T18:57:07.285Z,14.53
2022-12-20T18:59:37.205Z,12.40
2022-12-20T19:02:05.737Z,14.17
2022-12-20T19:04:36.655Z,16.00
2022-12-20T19:07:04.971Z,20.00
2022-12-20T19:09:33.257Z,25.23
2022-12-20T19:12:02.302Z,15.23
2022-12-20T19:14:30.747Z,17.83
2022-12-20T19:17:00.800Z,16.57
2022-12-20T19:19:29.366Z,14.73
2022-12-20T19:21:57.796Z,10.90
2022-12-20T19:24:26.079Z,10.73
2022-12-20T19:26:54.567Z,11.10
2022-12-20T19:29:23.078Z,7.90
2022-12-20T19:31:51.521Z,7.27
2022-12-20T19:34:22.136Z,12.97
2022-12-20T19:36:52.443Z,11.37
2022-12-20T19:39:23.591Z,6.10
2022-12-20T19:42:22.527Z,6.83
2022-12-20T19:44:41.843Z,7.00
2022-12-20T19:47:10.237Z,7.13
2022-12-20T19:49:40.262Z,8.40
2022-12-20T19:52:09.139Z,8.67
2022-12-20T19:54:39.857Z,8.00
2022-12-20T19:57:08.465Z,10.80
2022-12-20T19:59:37.127Z,6.20
2022-12-20T20:02:05.663Z,5.80
2022-12-20T20:04:34.431Z,6.20
2022-12-20T20:07:04.725Z,13.87
2022-12-20T20:09:36.475Z,14.53
2022-12-20T20:12:05.919Z,8.07
2022-12-20T20:14:34.315Z,8.43
2022-12-20T20:17:02.795Z,7.67
2022-12-20T20:19:31.187Z,8.10
2022-12-20T20:22:01.236Z,7.27
2022-12-20T20:24:31.307Z,6.90
2022-12-20T20:26:59.823Z,5.10
2022-12-20T20:29:28.581Z,3.87
2022-12-20T20:31:57.475Z,6.07
2022-12-20T20:34:26.012Z,4.30
2022-12-20T20:36:54.743Z,3.57
2022-12-20T20:39:23.000Z,4.73
2022-12-20T20:41:52.668Z,5.97
2022-12-20T20:44:20.891Z,4.27
2022-12-20T20:46:49.426Z,4.40
2022-12-20T20:49:19.696Z,4.50
2022-12-20T20:51:48.263Z,4.10
2022-12-20T20:54:16.847Z,11.47
2022-12-20T20:56:45.086Z,12.70
2022-12-20T20:59:17.730Z,16.00
2022-12-20T21:01:46.603Z,7.90
2022-12-20T21:04:14.901Z,7.43
2022-12-20T21:06:43.265Z,10.60
2022-12-20T21:09:12.182Z,6.83
2022-12-20T21:11:40.933Z,9.37
2022-12-20T21:14:11.339Z,21.40
2022-12-20T21:16:42.219Z,18.23
2022-12-20T21:19:11.944Z,21.87
2022-12-20T21:21:40.178Z,24.63
2022-12-20T21:24:08.874Z,23.87
2022-12-20T21:26:37.914Z,22.40
2022-12-20T21:29:06.304Z,14.90
2022-12-20T21:31:34.762Z,11.87
2022-12-20T21:34:05.509Z,8.77
2022-12-20T21:36:34.069Z,11.90
2022-12-20T21:39:02.290Z,12.83
2022-12-20T21:41:31.655Z,14.30
2022-12-20T21:44:01.466Z,15.23
2022-12-20T21:46:32.278Z,10.80
2022-12-20T21:49:01.020Z,9.33
2022-12-20T21:51:31.999Z,7.40
2022-12-20T21:54:03.075Z,9.40
2022-12-20T21:56:35.743Z,14.77
2022-12-20T21:59:05.276Z,15.27
2022-12-20T22:01:33.785Z,16.17
2022-12-20T22:04:05.989Z,17.40
2022-12-20T22:06:36.618Z,14.77
2022-12-20T22:09:07.499Z,17.07
2022-12-20T22:11:37.843Z,11.80
2022-12-20T22:14:07.577Z,11.03
2022-12-20T22:16:36.314Z,14.47
2022-12-20T22:19:05.718Z,11.17
2022-12-20T22:21:37.389Z,9.53
2022-12-20T22:24:05.844Z,11.20
2022-12-20T22:26:35.945Z,11.03
2022-12-20T22:29:07.442Z,15.20
2022-12-20T22:31:37.390Z,16.47
2022-12-20T22:34:06.513Z,16.63
2022-12-20T22:36:36.994Z,13.50
2022-12-20T22:39:05.924Z,9.93
2022-12-20T22:41:35.509Z,11.20
2022-12-20T22:44:05.020Z,12.07
2022-12-20T22:46:34.198Z,8.53
2022-12-20T22:49:02.494Z,5.67
2022-12-20T22:51:33.511Z,6.70
2022-12-20T22:54:04.173Z,10.17
2022-12-20T22:56:32.486Z,11.67
2022-12-20T22:59:00.922Z,32.83
2022-12-20T23:01:29.329Z,21.00
2022-12-20T23:03:58.055Z,8.80
2022-12-20T23:06:26.572Z,7.57
2022-12-20T23:08:55.280Z,7.93
2022-12-20T23:11:45.009Z,7.53
2022-12-20T23:14:33.443Z,7.63
2022-12-20T23:17:03.020Z,10.87
2022-12-20T23:19:53.039Z,9.43
2022-12-20T23:22:40.634Z,9.03
2022-12-20T23:25:13.069Z,11.60
2022-12-20T23:27:46.091Z,9.90
2022-12-20T23:30:18.265Z,26.53
2022-12-20T23:32:46.643Z,17.30
2022-12-20T23:35:17.858Z,23.57
2022-12-20T23:37:46.835Z,24.33
2022-12-20T23:40:17.785Z,21.33
2022-12-20T23:42:47.654Z,18.33
2022-12-20T23:45:16.050Z,15.77
2022-12-20T23:47:44.245Z,13.83
2022-12-20T23:50:13.052Z,12.17
2022-12-20T23:52:41.595Z,14.30
2022-12-20T23:55:11.218Z,8.37
2022-12-20T23:57:40.008Z,7.97
